Time;durP1;ratioP1;P1;durP2;ratioP2;P2;SDS_P1;SDS_P2;PMS_P1;PMS_P2;Temp;Humidity;BMP_temperature;BMP_pressure;BME280_temperature;BME280_humidity;BME280_pressure;Samples;Min_cycle;Max_cycle;Signal;HPM_P1;HPM_P2
2021/07/28 00:01:56;;;;;;;3.38;2.83;;;20.90;69.50;;;20.88;54.84;94656.22;5004278;28;20255;-86
2021/07/28 00:04:24;;;;;;;3.55;2.60;;;20.90;69.50;;;20.83;54.82;94647.41;4995935;28;20197;-87
2021/07/28 00:06:52;;;;;;;4.28;2.42;;;20.80;69.50;;;20.78;54.47;94654.31;5013099;28;20193;-87
2021/07/28 00:09:19;;;;;;;2.70;2.50;;;20.80;69.30;;;20.77;54.78;94657.25;4996619;28;20308;-87
2021/07/28 00:11:49;;;;;;;3.30;2.10;;;20.80;69.30;;;20.74;54.17;94649.81;5021727;28;20211;-88
2021/07/28 00:14:18;;;;;;;2.53;2.15;;;20.80;69.30;;;20.72;54.24;94651.91;4996639;28;20291;-88
2021/07/28 00:16:45;;;;;;;3.08;2.25;;;20.70;68.90;;;20.73;53.71;94651.66;5013579;28;20209;-88
2021/07/28 00:19:19;;;;;;;2.17;1.98;;;20.70;69.30;;;20.71;54.10;94655.59;5012345;28;20220;-88
2021/07/28 00:24:35;;;;;;;2.25;2.00;;;20.70;69.10;;;20.73;54.18;94656.97;5019285;28;20219;-87
2021/07/28 00:27:04;;;;;;;3.00;2.10;;;20.70;69.60;;;20.75;54.06;94670.84;5032485;28;20212;-88
2021/07/28 00:29:31;;;;;;;2.88;2.58;;;20.70;69.50;;;20.75;53.88;94668.19;5028356;28;20219;-88
2021/07/28 00:31:58;;;;;;;4.03;2.58;;;20.70;69.60;;;20.77;53.78;94665.25;5025850;28;20220;-88
2021/07/28 00:34:25;;;;;;;4.22;2.83;;;20.70;69.80;;;20.71;54.31;94661.72;5007239;28;20280;-88
2021/07/28 00:36:52;;;;;;;3.40;2.70;;;20.70;69.90;;;20.72;54.21;94660.69;5019432;28;20201;-87
2021/07/28 00:39:19;;;;;;;3.20;2.78;;;20.70;70.00;;;20.73;54.65;94664.97;4997893;28;20235;-88
2021/07/28 00:41:46;;;;;;;3.05;2.75;;;20.70;70.10;;;20.72;54.55;94663.38;5018785;28;20704;-88
2021/07/28 00:44:14;;;;;;;3.10;2.80;;;20.70;70.10;;;20.72;54.73;94659.91;5035276;28;20199;-87
2021/07/28 00:46:41;;;;;;;3.10;2.63;;;20.70;70.10;;;20.68;54.58;94662.28;5006601;28;20203;-88
2021/07/28 00:49:09;;;;;;;6.45;2.38;;;20.70;70.00;;;20.66;54.43;94658.25;5033710;28;20267;-88
2021/07/28 00:51:36;;;;;;;2.53;2.10;;;20.60;69.90;;;20.60;54.18;94655.59;5016617;28;20251;-88
2021/07/28 00:54:03;;;;;;;3.05;1.90;;;20.60;69.80;;;20.56;54.57;94657.16;5032099;28;20243;-88
2021/07/28 00:56:30;;;;;;;4.22;2.03;;;20.60;69.90;;;20.51;54.49;94654.47;5007400;28;20217;-87
2021/07/28 00:58:58;;;;;;;1.98;1.88;;;20.50;69.80;;;20.48;54.60;94660.31;5020092;28;20239;-88
2021/07/28 01:01:26;;;;;;;3.70;1.77;;;20.50;69.80;;;20.42;54.84;94658.69;5035917;28;20257;-87
2021/07/28 01:03:54;;;;;;;2.22;1.88;;;20.50;69.70;;;20.36;54.79;94660.56;5033042;28;20214;-87
2021/07/28 01:06:21;;;;;;;3.58;2.10;;;20.50;69.80;;;20.39;54.51;94664.56;5025551;28;20220;-87
2021/07/28 01:08:48;;;;;;;3.78;1.90;;;20.40;69.80;;;;;;5019590;28;20275;-88
2021/07/28 01:11:24;;;;;;;3.13;1.90;;;20.40;69.70;;;20.39;54.83;94672.53;5029795;28;20705;-87
2021/07/28 01:13:52;;;;;;;2.75;2.13;;;20.40;70.50;;;20.42;54.38;94685.34;5013345;28;20195;-87
2021/07/28 01:16:24;;;;;;;2.40;2.20;;;20.40;70.00;;;20.44;55.59;94685.88;5019437;28;20300;-87
2021/07/28 01:18:52;;;;;;;3.10;2.80;;;20.40;70.50;;;20.45;55.80;94682.16;5011983;28;20240;-88
2021/07/28 01:21:20;;;;;;;3.28;2.50;;;20.40;70.70;;;20.46;55.97;94684.56;4999475;28;20318;-88
2021/07/28 01:23:50;;;;;;;4.15;2.35;;;20.40;70.70;;;20.52;56.50;94684.56;5032652;28;20426;-86
2021/07/28 01:26:18;;;;;;;2.70;2.40;;;20.40;71.00;;;20.56;56.37;94683.81;5030347;28;20251;-87
2021/07/28 01:28:45;;;;;;;2.83;2.40;;;20.50;71.30;;;20.61;57.02;94686.47;5038444;28;20666;-87
2021/07/28 01:31:16;;;;;;;3.03;2.70;;;20.50;71.40;;;20.68;57.07;94680.91;4996778;28;20252;-86
2021/07/28 01:33:46;;;;;;;4.00;2.53;;;20.50;71.70;;;20.75;56.97;94678.84;5033058;28;20185;-87
2021/07/28 01:36:23;;;;;;;4.53;2.70;;;20.60;71.60;;;20.85;56.17;94677.25;5031578;28;20224;-87
2021/07/28 01:38:50;;;;;;;2.97;2.58;;;20.70;71.80;;;20.93;56.33;94674.09;4999039;28;20583;-88
2021/07/28 01:41:18;;;;;;;3.67;2.50;;;20.70;71.80;;;21.04;56.37;94675.72;5014132;28;20224;-88
2021/07/28 01:43:46;;;;;;;3.45;2.47;;;20.70;71.70;;;21.07;56.27;94666.41;5029446;28;20192;-87
2021/07/28 01:46:14;;;;;;;3.72;2.45;;;20.90;71.70;;;21.21;55.59;94678.13;5035486;28;20233;-88
2021/07/28 01:48:41;;;;;;;3.58;2.70;;;20.90;71.60;;;21.26;56.02;94674.69;5044562;28;20196;-88
2021/07/28 01:51:09;;;;;;;3.33;2.72;;;21.00;71.80;;;21.32;55.81;94673.63;5017040;28;20246;-86
2021/07/28 01:53:36;;;;;;;3.78;2.80;;;21.00;71.70;;;21.31;55.85;94661.34;5014077;28;20327;-88
2021/07/28 01:56:04;;;;;;;2.60;2.40;;;21.10;71.80;;;21.35;55.53;94677.63;5014627;28;20212;-87
2021/07/28 01:58:31;;;;;;;4.00;2.40;;;21.10;71.50;;;21.33;55.66;94674.44;5030489;28;20200;-87
2021/07/28 02:00:59;;;;;;;5.05;2.30;;;21.20;71.50;;;21.30;55.81;94667.78;5015082;28;20231;-87
2021/07/28 02:03:26;;;;;;;5.75;3.00;;;21.20;71.40;;;21.32;55.90;94668.28;5034725;28;20283;-87
2021/07/28 02:05:53;;;;;;;3.17;2.65;;;21.20;71.50;;;21.32;55.45;94664.81;5034869;28;20215;-87
2021/07/28 02:08:21;;;;;;;3.55;2.80;;;21.20;71.50;;;21.27;55.73;94669.06;5018181;28;20199;-87
2021/07/28 02:10:49;;;;;;;2.88;2.63;;;21.30;71.50;;;21.28;56.38;94668.00;4997792;28;20682;-88
2021/07/28 02:13:19;;;;;;;3.78;2.70;;;21.20;71.50;;;21.31;55.96;94666.69;5027412;28;20205;-87
2021/07/28 02:15:47;;;;;;;3.30;2.53;;;21.20;71.60;;;21.37;55.60;94675.50;5011940;28;20227;-88
2021/07/28 02:18:15;;;;;;;3.78;2.80;;;21.20;71.60;;;21.39;55.51;94673.38;5034846;28;20247;-88
2021/07/28 02:20:42;;;;;;;3.00;2.70;;;21.30;71.70;;;21.43;55.67;94675.25;5025359;28;20235;-87
2021/07/28 02:23:09;;;;;;;3.00;2.53;;;21.30;71.80;;;21.46;55.91;94673.09;5031462;28;20203;-87
2021/07/28 02:25:36;;;;;;;5.25;2.67;;;21.20;71.80;;;21.48;56.12;94670.97;5039550;28;20748;-87
2021/07/28 02:28:04;;;;;;;3.53;2.60;;;21.30;71.90;;;21.50;55.57;94671.50;5017979;28;20266;-87
2021/07/28 02:30:31;;;;;;;4.03;2.60;;;21.30;71.90;;;21.46;55.40;94670.44;5050902;28;20308;-87
2021/07/28 02:32:58;;;;;;;3.38;2.55;;;21.30;71.80;;;21.49;56.20;94673.38;5030653;28;20193;-87
2021/07/28 02:35:26;;;;;;;5.53;2.63;;;21.40;71.80;;;21.47;56.10;94678.19;5024321;28;20212;-87
2021/07/28 02:37:53;;;;;;;3.53;2.42;;;21.30;71.60;;;21.46;55.93;94681.09;5014424;28;20561;-87
2021/07/28 02:40:21;;;;;;;2.63;2.42;;;21.30;71.30;;;21.46;55.36;94678.44;5014128;28;20229;-88
2021/07/28 02:42:49;;;;;;;2.58;2.20;;;21.30;71.20;;;21.47;55.38;94685.38;5016099;28;20196;-87
2021/07/28 02:45:16;;;;;;;2.35;2.15;;;21.30;70.90;;;21.53;55.10;94689.66;5033940;28;20223;-88
2021/07/28 02:47:44;;;;;;;3.38;2.13;;;21.30;71.00;;;21.56;55.09;94683.78;5034087;28;20254;-87
2021/07/28 02:50:12;;;;;;;2.58;2.38;;;21.30;70.90;;;21.59;55.25;94683.28;5026257;28;20286;-87
2021/07/28 02:52:40;;;;;;;2.45;2.25;;;21.40;71.00;;;21.64;55.53;94680.63;5017498;28;20227;-87
2021/07/28 02:55:08;;;;;;;2.50;2.30;;;21.40;71.00;;;21.67;54.96;94679.28;5034803;28;20227;-85
2021/07/28 02:57:37;;;;;;;2.53;2.28;;;21.40;70.60;;;21.71;54.55;94672.34;5023023;28;20235;-87
2021/07/28 03:00:08;;;;;;;2.45;2.20;;;21.50;70.80;;;21.74;54.62;94682.50;5018116;28;20308;-87
2021/07/28 03:02:36;;;;;;;2.25;2.05;;;21.50;70.90;;;21.75;54.93;94676.88;5002794;28;20725;-87
2021/07/28 03:05:05;;;;;;;3.45;2.40;;;21.50;71.70;;;21.76;54.76;94680.31;5001585;28;20221;-87
2021/07/28 03:07:35;;;;;;;2.78;2.50;;;21.60;70.70;;;21.76;54.28;94669.66;5000791;28;20217;-87
2021/07/28 03:10:04;;;;;;;3.67;2.67;;;21.50;70.20;;;21.78;54.78;94677.41;5009624;28;20282;-87
2021/07/28 03:12:31;;;;;;;3.72;2.90;;;21.60;70.60;;;21.81;54.44;94674.97;5026841;28;20193;-88
2021/07/28 03:14:58;;;;;;;3.75;2.75;;;21.60;70.70;;;21.85;54.38;94676.06;4994090;28;20224;-88
2021/07/28 03:17:25;;;;;;;3.47;2.80;;;21.60;70.50;;;21.89;54.35;94677.13;5022274;28;20189;-87
2021/07/28 03:19:53;;;;;;;2.88;2.53;;;21.70;70.40;;;21.95;54.25;94677.09;5021202;28;20220;-87
2021/07/28 03:22:21;;;;;;;4.35;2.70;;;21.70;70.30;;;22.00;54.13;94685.13;5021442;28;20224;-87
2021/07/28 03:24:48;;;;;;;3.50;2.60;;;21.70;70.10;;;22.02;53.96;94674.97;5006372;28;20447;-87
2021/07/28 03:27:15;;;;;;;2.40;2.20;;;21.80;70.50;;;22.05;53.99;94675.22;5011450;28;20564;-87
2021/07/28 03:29:42;;;;;;;4.25;2.72;;;21.70;70.30;;;22.06;54.34;94679.50;5012693;28;20603;-86
2021/07/28 03:32:09;;;;;;;2.70;2.42;;;21.80;70.60;;;22.06;54.48;94678.69;5025447;28;20207;-87
2021/07/28 03:34:38;;;;;;;3.35;2.40;;;21.80;70.30;;;22.03;54.06;94677.38;5000125;28;20304;-87
2021/07/28 03:37:05;;;;;;;3.05;2.72;;;21.80;70.40;;;22.08;53.93;94671.19;4998852;28;20193;-88
2021/07/28 03:39:32;;;;;;;4.13;2.70;;;21.80;70.20;;;22.06;53.71;94673.38;5006211;28;20222;-87
2021/07/28 03:42:01;;;;;;;3.92;3.20;;;21.80;70.10;;;22.06;54.25;94676.81;5020369;28;20228;-87
2021/07/28 03:44:32;;;;;;;4.88;3.38;;;21.90;70.10;;;22.14;54.54;94677.34;4999766;28;20220;-87
2021/07/28 03:47:00;;;;;;;3.35;3.05;;;21.90;70.20;;;22.18;53.70;94679.22;5020712;28;20194;-87
2021/07/28 03:49:27;;;;;;;3.88;3.15;;;21.90;70.10;;;22.18;53.93;94667.72;5008762;28;20251;-87
2021/07/28 03:51:54;;;;;;;3.53;3.05;;;21.90;70.20;;;22.23;54.16;94671.19;5021386;28;20197;-87
2021/07/28 03:54:21;;;;;;;3.92;2.95;;;21.90;70.20;;;22.25;53.78;94667.44;5014153;28;20193;-87
2021/07/28 03:56:48;;;;;;;3.15;2.85;;;22.00;70.30;;;22.28;53.97;94673.03;5005938;28;20224;-87
2021/07/28 03:59:16;;;;;;;4.43;3.33;;;22.00;70.10;;;22.26;53.77;94666.38;5007407;28;20227;-87
2021/07/28 04:01:43;;;;;;;3.38;3.00;;;22.00;70.00;;;22.28;53.95;94665.03;5002607;28;20228;-88
2021/07/28 04:04:11;;;;;;;3.90;3.38;;;22.00;70.00;;;22.29;53.85;94663.13;5030059;28;20287;-88
2021/07/28 04:06:38;;;;;;;4.45;2.92;;;22.10;70.00;;;22.27;54.05;94659.97;5013588;28;20207;-88
2021/07/28 04:09:05;;;;;;;5.63;3.70;;;22.10;70.00;;;22.28;54.22;94658.91;5030596;28;20204;-88
2021/07/28 04:11:32;;;;;;;3.90;3.50;;;22.10;70.10;;;22.30;54.16;94668.22;5029731;28;20188;-88
2021/07/28 04:14:00;;;;;;;5.00;3.20;;;22.10;70.10;;;22.33;54.12;94667.69;5021933;28;20395;-88
2021/07/28 04:16:27;;;;;;;4.82;3.75;;;22.10;70.20;;;22.31;54.25;94671.69;5003123;28;20254;-88
2021/07/28 04:18:58;;;;;;;5.95;3.75;;;22.20;70.30;;;22.30;54.20;94673.56;4984866;28;20198;-88
2021/07/28 04:21:25;;;;;;;3.90;3.50;;;22.10;70.30;;;22.25;54.11;94660.22;5013032;28;20305;-87
2021/07/28 04:23:52;;;;;;;4.05;3.65;;;22.10;70.20;;;22.29;54.61;94668.47;5013752;28;20232;-88
2021/07/28 04:26:19;;;;;;;4.78;4.00;;;22.10;70.40;;;22.27;54.46;94671.44;5013756;28;20310;-88
2021/07/28 04:28:47;;;;;;;4.38;3.95;;;22.10;70.60;;;22.25;55.00;94668.22;5030509;28;20690;-88
2021/07/28 04:31:14;;;;;;;7.07;4.18;;;22.10;70.80;;;22.28;54.94;94666.91;5015220;28;20210;-88
2021/07/28 04:33:41;;;;;;;4.18;3.78;;;22.10;70.80;;;22.28;55.05;94672.25;5024211;28;20653;-88
2021/07/28 04:36:09;;;;;;;5.28;4.78;;;22.10;71.00;;;22.26;55.17;94669.84;4996557;28;20244;-88
2021/07/28 04:38:36;;;;;;;4.78;4.28;;;22.10;71.10;;;22.26;55.16;94683.19;4996174;28;20230;-88
2021/07/28 04:41:07;;;;;;;5.43;4.55;;;22.10;71.20;;;22.25;55.47;94688.81;5026257;28;20752;-89
2021/07/28 04:43:34;;;;;;;5.38;4.32;;;22.10;71.30;;;22.21;55.84;94685.88;5017519;28;20210;-88
2021/07/28 04:46:03;;;;;;;5.50;4.32;;;22.10;71.50;;;22.18;55.60;94711.25;5012108;28;20282;-88
2021/07/28 04:48:31;;;;;;;4.78;4.30;;;22.10;71.40;;;22.16;55.66;94696.59;5028642;28;20202;-88
2021/07/28 04:50:59;;;;;;;5.00;4.47;;;22.00;71.40;;;22.12;55.56;94703.50;5021039;28;20225;-88
2021/07/28 04:53:30;;;;;;;4.70;4.22;;;22.00;71.40;;;22.09;55.97;94706.75;5031963;28;20202;-88
2021/07/28 04:55:58;;;;;;;4.57;4.15;;;22.00;71.50;;;22.02;56.07;94699.00;5032185;28;20219;-88
2021/07/28 04:58:26;;;;;;;5.50;3.85;;;22.00;71.50;;;21.99;55.76;94694.19;5026229;28;20650;-88
2021/07/28 05:00:54;;;;;;;5.72;4.85;;;21.90;71.60;;;21.99;56.04;94707.56;5012189;28;20272;-89
2021/07/28 05:03:22;;;;;;;4.90;4.47;;;21.90;72.70;;;21.97;56.03;94699.00;5014348;28;20280;-89
2021/07/28 05:05:50;;;;;;;5.22;4.70;;;21.90;71.80;;;21.95;56.68;94693.13;5000760;28;20235;-88
2021/07/28 05:08:17;;;;;;;5.28;4.78;;;21.90;72.10;;;21.93;56.63;94687.28;5028389;28;20198;-88
2021/07/28 05:10:44;;;;;;;6.57;4.80;;;21.90;72.30;;;21.98;57.06;94687.25;5011758;28;20219;-88
2021/07/28 05:13:15;;;;;;;5.97;4.70;;;21.80;72.50;;;22.10;56.94;94686.97;5012392;28;20202;-87
2021/07/28 05:15:43;;;;;;;5.35;4.85;;;21.90;72.80;;;22.20;56.66;94695.78;5029852;28;20223;-88
2021/07/28 05:18:10;;;;;;;6.40;5.32;;;21.90;72.80;;;22.30;57.08;94694.94;5024405;28;20185;-87
2021/07/28 05:20:38;;;;;;;6.85;5.32;;;22.00;73.40;;;22.39;57.20;94688.00;5018392;28;20265;-88
2021/07/28 05:23:05;;;;;;;5.43;4.93;;;22.00;73.50;;;22.53;56.85;94695.44;5031778;28;20235;-88
2021/07/28 05:25:32;;;;;;;6.85;5.30;;;22.10;73.40;;;22.62;57.40;94690.31;5033659;28;20219;-88
2021/07/28 05:27:59;;;;;;;6.20;5.20;;;22.20;73.60;;;22.74;57.41;94698.03;5033030;28;20263;-87
2021/07/28 05:30:28;;;;;;;6.43;5.47;;;22.30;73.70;;;22.86;56.95;94690.47;5034575;28;20230;-89
2021/07/28 05:32:56;;;;;;;6.45;5.68;;;22.40;73.60;;;23.00;56.89;94699.50;5015157;28;20213;-88
2021/07/28 05:35:23;;;;;;;5.28;4.78;;;22.50;73.50;;;23.10;56.67;94687.16;5014828;28;20212;-87
2021/07/28 05:38:03;;;;;;;5.88;4.70;;;22.60;73.50;;;23.22;56.51;94686.84;5013947;28;20183;-88
2021/07/28 05:40:31;;;;;;;5.28;4.70;;;22.70;73.50;;;23.29;56.26;94680.13;5014729;28;20231;-86
2021/07/28 05:42:58;;;;;;;5.85;5.22;;;22.80;73.50;;;23.37;55.79;94676.03;5015302;28;20320;-86
2021/07/28 05:45:25;;;;;;;5.35;4.78;;;22.90;73.00;;;23.42;55.88;94692.06;5017808;28;20222;-88
2021/07/28 05:47:53;;;;;;;5.38;4.75;;;22.90;72.90;;;23.50;56.03;94688.00;5002714;28;20242;-88
2021/07/28 05:50:20;;;;;;;6.07;5.20;;;23.00;72.80;;;23.57;55.99;94687.66;5014697;28;20250;-87
2021/07/28 05:52:47;;;;;;;5.45;4.90;;;23.10;72.80;;;23.61;55.53;94684.16;5015121;28;20193;-88
2021/07/28 05:55:14;;;;;;;5.35;4.80;;;23.20;72.50;;;23.69;55.58;94680.06;5015115;28;20220;-88
2021/07/28 05:57:42;;;;;;;5.55;4.60;;;23.20;72.50;;;23.77;55.00;94687.50;5031811;28;20250;-88
2021/07/28 06:00:10;;;;;;;4.85;4.43;;;23.30;72.30;;;23.84;55.25;94689.88;5025116;28;20228;-88
2021/07/28 06:02:37;;;;;;;5.32;4.80;;;23.30;72.40;;;23.93;55.20;94690.88;4985289;28;20244;-88
2021/07/28 06:05:06;;;;;;;5.68;4.63;;;23.40;72.50;;;24.02;55.02;94692.97;5026151;28;20217;-85
2021/07/28 06:07:34;;;;;;;5.40;4.90;;;23.50;72.40;;;24.13;55.55;94703.31;5012004;28;20271;-84
2021/07/28 06:10:01;;;;;;;5.40;4.90;;;23.60;72.50;;;24.22;54.80;94697.34;5022218;28;20697;-85
2021/07/28 06:12:28;;;;;;;6.00;5.40;;;23.70;72.10;;;24.28;54.56;94690.84;5022268;28;20356;-85
2021/07/28 06:14:55;;;;;;;5.88;4.80;;;23.80;71.70;;;24.35;54.58;94691.31;5021192;28;20254;-85
2021/07/28 06:17:23;;;;;;;5.28;4.38;;;23.80;72.00;;;24.45;54.55;94685.03;5013130;28;20192;-85
2021/07/28 06:19:50;;;;;;;6.35;4.90;;;23.90;71.80;;;24.58;54.14;94696.94;4996628;28;20291;-85
2021/07/28 06:22:17;;;;;;;4.65;4.20;;;24.00;71.70;;;24.68;53.70;94696.03;5024263;28;20591;-84
2021/07/28 06:24:45;;;;;;;6.45;4.63;;;24.10;71.30;;;24.75;53.29;94691.13;4988644;28;20225;-85
2021/07/28 06:27:12;;;;;;;4.97;4.28;;;24.20;71.30;;;24.87;53.57;94699.56;5030193;28;20568;-85
2021/07/28 06:29:39;;;;;;;4.60;4.18;;;24.30;70.90;;;24.97;53.09;94695.16;5004979;28;20235;-84
2021/07/28 06:32:21;;;;;;;4.95;4.40;;;24.30;71.00;;;25.05;52.68;94689.16;4994861;28;20198;-84
2021/07/28 06:34:48;;;;;;;4.60;4.20;;;24.40;70.70;;;25.13;52.86;94693.06;5006747;28;20205;-86
2021/07/28 06:37:15;;;;;;;3.97;3.58;;;24.50;70.60;;;25.25;52.55;94698.78;5018832;28;20203;-85
2021/07/28 06:39:42;;;;;;;4.18;3.78;;;24.60;70.40;;;25.36;52.38;94697.56;4990667;28;20274;-84
2021/07/28 06:42:09;;;;;;;4.55;3.90;;;24.70;70.20;;;25.41;51.98;94702.09;5005098;28;20732;-85
2021/07/28 06:44:37;;;;;;;4.30;3.90;;;24.80;70.00;;;25.54;51.97;94714.78;5020961;28;20275;-85
2021/07/28 06:47:05;;;;;;;4.20;3.80;;;24.90;69.70;;;25.62;51.42;94715.22;4991322;28;20238;-85
2021/07/28 06:49:32;;;;;;;3.90;3.45;;;24.90;69.20;;;25.68;51.30;94708.66;5021259;28;20694;-85
2021/07/28 06:51:59;;;;;;;3.75;3.35;;;25.00;69.20;;;25.73;51.49;94704.03;5020098;28;20553;-83
2021/07/28 06:54:26;;;;;;;3.63;3.33;;;25.10;68.90;;;25.80;50.91;94697.47;5016596;28;20845;-85
2021/07/28 06:56:54;;;;;;;3.78;3.22;;;25.20;68.90;;;25.87;50.45;94709.41;5018111;28;20307;-84
2021/07/28 06:59:21;;;;;;;4.20;3.45;;;25.20;68.50;;;25.92;50.63;94700.50;5023121;28;20306;-85
2021/07/28 07:01:50;;;;;;;3.67;3.30;;;25.30;68.10;;;25.98;51.00;94699.31;5021049;28;20346;-84
2021/07/28 07:04:17;;;;;;;3.35;3.05;;;25.40;69.20;;;26.07;50.54;94707.50;4999182;28;20213;-85
2021/07/28 07:06:44;;;;;;;3.47;3.17;;;25.40;68.50;;;26.21;50.84;94699.50;5008334;28;20209;-85
2021/07/28 07:09:12;;;;;;;3.60;3.30;;;25.50;68.50;;;26.36;50.78;94698.41;5020870;28;20185;-87
2021/07/28 07:11:39;;;;;;;3.78;3.38;;;25.60;68.40;;;26.52;50.38;94690.84;5022104;28;20209;-86
2021/07/28 07:14:06;;;;;;;4.00;3.35;;;25.70;68.20;;;26.70;50.26;94702.59;5031647;28;20223;-86
2021/07/28 07:16:33;;;;;;;3.90;3.22;;;25.90;68.10;;;26.87;49.28;94699.34;5014317;28;20206;-85
2021/07/28 07:19:01;;;;;;;4.05;2.70;;;26.00;68.00;;;27.04;49.03;94701.41;5011434;28;20293;-84
2021/07/28 07:22:03;;;;;;;3.92;3.35;;;26.10;67.90;;;27.21;48.74;94697.28;5006118;28;20250;-84
2021/07/28 07:24:30;;;;;;;3.50;3.20;;;26.30;68.00;;;27.29;47.04;94696.56;4994244;28;20224;-85
2021/07/28 07:26:57;;;;;;;3.38;3.08;;;26.40;66.50;;;27.36;47.53;94698.84;5001640;28;20264;-87
2021/07/28 07:29:25;;;;;;;3.10;2.80;;;26.50;66.40;;;27.37;47.80;94695.84;5024667;28;20662;-85
2021/07/28 07:31:52;;;;;;;4.35;3.17;;;26.60;66.40;;;27.41;48.45;94693.38;5006686;28;20191;-83
2021/07/28 07:34:20;;;;;;;3.05;2.85;;;26.70;66.90;;;27.54;48.26;94697.09;5016479;28;20805;-85
2021/07/28 07:36:47;;;;;;;3.28;2.97;;;26.80;66.60;;;27.68;47.76;94684.38;5013216;28;20202;-85
2021/07/28 07:39:14;;;;;;;4.45;3.17;;;26.80;66.20;;;27.84;46.43;94687.50;5020784;28;20637;-86
2021/07/28 07:41:42;;;;;;;3.42;3.10;;;26.90;65.70;;;28.04;47.46;94688.91;5010947;28;20216;-85
2021/07/28 07:44:09;;;;;;;3.63;3.33;;;27.10;66.30;;;28.29;47.39;94683.97;4996027;28;20196;-85
2021/07/28 07:46:36;;;;;;;4.97;3.03;;;27.20;66.30;;;28.55;46.93;94678.69;5026225;28;20203;-85
2021/07/28 07:49:03;;;;;;;3.17;2.90;;;27.40;65.60;;;28.81;46.87;94685.28;5013313;28;20198;-86
2021/07/28 07:51:32;;;;;;;3.60;3.25;;;27.60;66.00;;;29.06;46.49;94678.34;5030758;28;20314;-84
2021/07/28 07:54:00;;;;;;;4.03;2.90;;;27.80;65.60;;;29.32;46.00;94678.41;5032313;28;20303;-85
2021/07/28 07:56:28;;;;;;;3.33;3.00;;;28.00;65.60;;;29.59;45.43;94681.09;5030697;28;20251;-86
2021/07/28 07:58:55;;;;;;;3.15;2.85;;;28.30;64.90;;;29.81;45.03;94685.53;5031102;28;20211;-86
2021/07/28 08:01:23;;;;;;;3.38;3.08;;;28.50;64.50;;;29.95;44.87;94682.69;5031714;28;20237;-86
2021/07/28 08:03:50;;;;;;;3.38;3.08;;;28.70;64.10;;;30.00;44.16;94686.03;5016162;28;20199;-86
2021/07/28 08:06:18;;;;;;;3.92;3.47;;;28.80;63.20;;;30.02;43.09;94688.41;5031975;28;20643;-85
2021/07/28 08:08:45;;;;;;;3.40;3.10;;;29.00;62.70;;;29.95;43.22;94685.41;5032128;28;20238;-85
2021/07/28 08:11:13;;;;;;;3.85;3.50;;;29.10;62.30;;;29.92;43.31;94686.03;5032444;28;20236;-86
2021/07/28 08:13:41;;;;;;;3.30;3.00;;;29.10;62.30;;;29.91;43.91;94687.94;5032191;28;20205;-86
2021/07/28 08:16:16;;;;;;;3.38;3.08;;;29.20;62.80;;;29.94;43.45;94691.91;5015610;28;20242;-86
2021/07/28 08:18:43;;;;;;;3.17;2.88;;;29.20;62.20;;;29.95;43.75;94697.00;5032234;28;20262;-85
2021/07/28 08:21:13;;;;;;;3.00;2.75;;;29.30;62.80;;;29.96;43.43;94687.78;5031861;28;20310;-86
2021/07/28 08:23:42;;;;;;;3.10;2.80;;;29.30;62.40;;;29.99;43.21;94687.13;5032021;28;20231;-86
2021/07/28 08:26:09;;;;;;;3.90;3.30;;;29.30;62.40;;;30.02;43.16;94702.72;5032071;28;20318;-86
2021/07/28 08:28:36;;;;;;;4.18;3.67;;;29.40;62.40;;;29.90;42.29;94694.47;5032179;28;20212;-86
2021/07/28 08:31:03;;;;;;;5.07;3.00;;;29.40;61.30;;;29.82;42.43;94697.94;5015414;28;20238;-86
2021/07/28 08:33:31;;;;;;;4.13;3.70;;;29.30;61.50;;;29.68;42.55;94698.91;5032137;28;20260;-86
2021/07/28 08:35:59;;;;;;;4.10;3.70;;;29.30;61.10;;;29.58;42.12;94690.31;5031911;28;20306;-86
2021/07/28 08:38:26;;;;;;;4.45;3.40;;;29.30;61.10;;;29.51;42.30;94693.50;5015873;28;20244;-86
2021/07/28 08:41:00;;;;;;;4.65;3.63;;;29.20;61.10;;;29.47;42.73;94698.75;5015415;28;20479;-86
2021/07/28 08:43:30;;;;;;;3.58;3.25;;;29.10;60.70;;;29.37;42.02;94693.69;5031889;28;20205;-86
2021/07/28 08:46:06;;;;;;;3.40;3.10;;;29.10;60.40;;;29.21;41.78;94686.00;5031839;28;20418;-85
2021/07/28 08:48:35;;;;;;;4.78;3.95;;;29.00;60.70;;;29.08;42.81;94689.66;5031942;28;20193;-86
2021/07/28 08:51:05;;;;;;;3.90;3.50;;;28.80;61.00;;;28.98;42.93;94677.25;5031867;28;20220;-85
2021/07/28 08:53:32;;;;;;;6.25;3.97;;;28.70;61.20;;;28.88;42.28;94677.53;5032214;28;20295;-85
2021/07/28 08:56:01;;;;;;;3.80;3.40;;;28.60;60.70;;;28.86;42.06;94683.25;5031752;28;20228;-86
2021/07/28 08:58:29;;;;;;;3.80;3.40;;;28.50;60.60;;;28.80;42.22;94681.00;5031676;28;20452;-85
2021/07/28 09:00:57;;;;;;;3.90;3.50;;;28.50;60.60;;;28.78;41.72;94681.31;5033022;28;20245;-85
2021/07/28 09:03:25;;;;;;;3.38;3.08;;;28.40;60.70;;;28.79;42.31;94682.13;5002564;28;20702;-85
2021/07/28 09:05:59;;;;;;;3.92;3.15;;;28.30;61.00;;;28.78;42.94;94688.63;5052460;28;20222;-86
2021/07/28 09:08:32;;;;;;;3.70;3.40;;;28.30;61.20;;;28.79;42.48;94691.00;5052317;28;20292;-86
2021/07/28 09:11:09;;;;;;;3.88;3.47;;;28.30;61.40;;;28.80;42.10;94686.41;5035474;28;20221;-86
2021/07/28 09:13:39;;;;;;;4.10;3.60;;;28.30;61.00;;;28.82;42.60;94687.69;5035501;28;20204;-85
2021/07/28 09:16:11;;;;;;;4.30;3.67;;;28.20;61.20;;;28.82;41.81;94686.88;5019236;28;20236;-86
2021/07/28 09:18:42;;;;;;;3.83;3.53;;;28.20;61.20;;;28.84;41.80;94684.66;5034694;28;20197;-85
2021/07/28 09:21:25;;;;;;;3.65;3.28;;;28.30;60.30;;;28.81;40.17;94669.09;5000821;28;20220;-85
2021/07/28 09:24:10;;;;;;;5.75;3.85;;;28.20;59.30;;;28.82;40.91;94678.78;5014978;28;20265;-85
2021/07/28 09:29:19;;;;;;;3.95;3.53;;;28.30;60.10;;;28.91;41.17;94666.09;5028914;28;20202;-85
2021/07/28 09:31:53;;;;;;;3.92;3.63;;;28.30;60.30;;;29.01;41.86;94659.59;5017973;28;20212;-84
2021/07/28 09:34:23;;;;;;;3.40;3.10;;;28.30;61.00;;;29.11;42.23;94658.50;5018586;28;20209;-85
2021/07/28 09:37:13;;;;;;;4.28;3.80;;;28.30;61.20;;;29.24;42.69;94657.56;5034367;28;20186;-85
2021/07/28 09:39:46;;;;;;;3.90;3.55;;;28.40;61.90;;;29.36;42.06;94659.66;5032943;28;20226;-85
2021/07/28 09:42:27;;;;;;;3.80;3.40;;;28.50;62.30;;;29.48;41.97;94665.22;5034207;28;20234;-84
2021/07/28 09:44:56;;;;;;;4.35;3.42;;;28.60;61.70;;;29.60;42.84;94664.59;5034691;28;20234;-85
2021/07/28 09:47:26;;;;;;;3.70;3.15;;;28.70;62.10;;;29.73;42.54;94672.84;5032309;28;20694;-85
2021/07/28 09:50:13;;;;;;;4.03;3.65;;;28.70;61.50;;;29.84;42.07;94668.69;5028890;28;20275;-85
2021/07/28 09:52:40;;;;;;;4.05;3.65;;;28.90;61.30;;;29.95;41.64;94669.94;5012932;28;20217;-85
2021/07/28 09:55:29;;;;;;;3.95;3.55;;;29.00;62.50;;;30.01;41.67;94648.94;5013293;28;20615;-85
2021/07/28 09:57:59;;;;;;;4.55;3.55;;;29.10;61.10;;;30.10;41.34;94654.31;5014139;28;20212;-85
2021/07/28 10:00:30;;;;;;;3.85;3.30;;;29.10;60.60;;;30.13;40.49;94646.38;5041700;28;20218;-85
2021/07/28 10:03:01;;;;;;;3.55;3.25;;;29.20;59.90;;;30.22;40.21;94648.25;4996855;28;20233;-83
2021/07/28 10:05:36;;;;;;;3.63;3.33;;;29.30;59.90;;;30.26;40.56;94641.88;5019975;28;20242;-84
2021/07/28 10:08:07;;;;;;;3.67;3.38;;;29.40;59.60;;;30.31;39.85;94636.28;5012285;28;20247;-85
2021/07/28 10:10:37;;;;;;;4.20;3.70;;;29.40;59.70;;;30.37;40.12;94636.09;5029830;28;21188;-85
2021/07/28 10:13:05;;;;;;;3.50;3.20;;;29.50;59.40;;;30.44;39.71;94629.03;5009073;28;20245;-84
2021/07/28 10:15:33;;;;;;;4.00;3.60;;;29.50;59.20;;;30.54;39.80;94630.63;5008452;28;20216;-85
2021/07/28 10:18:03;;;;;;;3.30;3.00;;;29.60;58.90;;;30.61;38.92;94630.91;5015472;28;20310;-84
2021/07/28 10:20:31;;;;;;;3.97;3.63;;;29.70;58.60;;;30.70;39.37;94621.94;5028655;28;20219;-84
2021/07/28 10:23:00;;;;;;;3.67;3.38;;;29.80;60.10;;;30.76;39.40;94615.22;5025224;28;20713;-84
2021/07/28 10:25:28;;;;;;;4.03;3.55;;;29.80;58.20;;;30.81;39.48;94613.13;5013710;28;20227;-84
2021/07/28 10:27:55;;;;;;;3.58;3.28;;;29.90;58.50;;;30.87;38.96;94604.78;5014703;28;20256;-83
2021/07/28 10:30:23;;;;;;;4.32;3.92;;;29.90;58.00;;;30.95;39.19;94620.97;4997028;28;20756;-83
2021/07/28 10:32:50;;;;;;;4.70;3.47;;;30.00;58.00;;;31.02;38.80;94622.34;5013882;28;20205;-84